createdAt,value
2019-03-28T00:02:19.038Z,2.00
2019-03-28T00:04:47.674Z,2.00
2019-03-28T00:07:16.327Z,2.00
2019-03-28T00:09:45.196Z,1.90
2019-03-28T00:12:14.035Z,1.90
2019-03-28T00:14:43.141Z,1.90
2019-03-28T00:17:12.166Z,1.90
2019-03-28T00:19:40.861Z,1.90
2019-03-28T00:22:09.506Z,1.80
2019-03-28T00:24:56.062Z,1.80
2019-03-28T00:27:24.698Z,1.70
2019-03-28T00:29:53.282Z,1.70
2019-03-28T00:32:21.846Z,1.60
2019-03-28T00:34:50.444Z,1.60
2019-03-28T00:37:19.019Z,1.60
2019-03-28T00:39:47.587Z,1.60
2019-03-28T00:42:16.230Z,1.50
2019-03-28T00:44:44.818Z,1.50
2019-03-28T00:47:13.392Z,1.50
2019-03-28T00:49:41.959Z,1.40
2019-03-28T00:52:10.537Z,1.40
2019-03-28T00:54:39.102Z,1.40
2019-03-28T00:57:07.666Z,1.40
2019-03-28T00:59:36.243Z,1.50
2019-03-28T01:02:05.020Z,1.50
2019-03-28T01:04:33.663Z,1.50
2019-03-28T01:07:02.228Z,1.40
2019-03-28T01:09:31.327Z,1.40
2019-03-28T01:11:59.971Z,1.30
2019-03-28T01:14:28.546Z,1.20
2019-03-28T01:16:57.187Z,1.20
2019-03-28T01:19:25.785Z,1.10
2019-03-28T01:21:54.350Z,1.10
2019-03-28T01:24:22.914Z,1.20
2019-03-28T01:26:57.153Z,1.20
2019-03-28T01:29:21.770Z,1.30
2019-03-28T01:31:50.346Z,1.20
2019-03-28T01:34:18.942Z,1.10
2019-03-28T01:36:47.517Z,1.10
2019-03-28T01:39:16.082Z,1.00
2019-03-28T01:41:44.738Z,0.80
2019-03-28T01:44:13.330Z,0.80
2019-03-28T01:46:41.966Z,0.70
2019-03-28T01:49:10.564Z,0.60
2019-03-28T01:51:39.182Z,0.50
2019-03-28T01:54:07.759Z,0.50
2019-03-28T01:56:36.385Z,0.50
2019-03-28T01:59:04.994Z,0.50
2019-03-28T02:01:33.558Z,0.60
2019-03-28T02:04:02.266Z,0.60
2019-03-28T02:06:31.014Z,0.60
2019-03-28T02:08:59.574Z,0.60
2019-03-28T02:11:28.150Z,0.60
2019-03-28T02:13:56.713Z,0.60
2019-03-28T02:16:25.290Z,0.60
2019-03-28T02:18:54.173Z,0.70
2019-03-28T02:21:23.070Z,0.60
2019-03-28T02:23:51.639Z,0.70
2019-03-28T02:26:20.361Z,0.70
2019-03-28T02:28:48.922Z,0.50
2019-03-28T02:31:17.488Z,0.50
2019-03-28T02:33:46.065Z,0.50
2019-03-28T02:36:14.678Z,0.50
2019-03-28T02:38:43.254Z,0.50
2019-03-28T02:41:11.873Z,0.50
2019-03-28T02:43:40.444Z,0.50
2019-03-28T02:46:09.007Z,0.50
2019-03-28T02:48:37.660Z,0.50
2019-03-28T02:51:06.292Z,0.60
2019-03-28T02:53:34.877Z,0.50
2019-03-28T02:56:03.527Z,0.60
2019-03-28T02:58:32.079Z,0.60
2019-03-28T03:01:00.723Z,0.60
2019-03-28T03:03:29.354Z,0.60
2019-03-28T03:05:58.035Z,0.70
2019-03-28T03:08:26.599Z,0.60
2019-03-28T03:10:55.327Z,0.60
2019-03-28T03:13:23.966Z,0.60
2019-03-28T03:15:52.546Z,0.60
2019-03-28T03:18:21.807Z,0.70
2019-03-28T03:20:50.552Z,0.60
2019-03-28T03:23:19.926Z,0.60
2019-03-28T03:25:48.720Z,0.50
2019-03-28T03:28:17.331Z,0.50
2019-03-28T03:30:45.955Z,0.40
2019-03-28T03:33:14.641Z,0.40
2019-03-28T03:35:43.182Z,0.30
2019-03-28T03:38:11.764Z,0.30
2019-03-28T03:40:40.390Z,0.30
2019-03-28T03:43:09.038Z,0.20
2019-03-28T03:45:37.614Z,0.10
2019-03-28T03:48:06.237Z,0.00
2019-03-28T03:50:34.815Z,-0.10
2019-03-28T03:53:03.449Z,-0.20
2019-03-28T03:55:32.052Z,-0.20
2019-03-28T03:58:14.492Z,-0.20
2019-03-28T04:00:32.455Z,-0.20
2019-03-28T04:03:02.943Z,-0.20
2019-03-28T04:05:31.987Z,-0.30
2019-03-28T04:08:00.674Z,-0.30
2019-03-28T04:10:29.342Z,-0.30
2019-03-28T04:12:57.944Z,-0.30
2019-03-28T04:15:26.635Z,-0.30
2019-03-28T04:17:55.341Z,-0.30
2019-03-28T04:20:24.900Z,-0.40
2019-03-28T04:22:53.856Z,-0.40
2019-03-28T04:25:22.427Z,-0.40
2019-03-28T04:27:51.003Z,-0.50
2019-03-28T04:30:19.723Z,-0.50
2019-03-28T04:32:48.286Z,-0.50
2019-03-28T04:35:16.930Z,-0.50
2019-03-28T04:37:45.498Z,-0.50
2019-03-28T04:40:14.250Z,-0.40
2019-03-28T04:42:45.624Z,-0.30
2019-03-28T04:45:13.182Z,-0.30
2019-03-28T04:47:41.762Z,-0.20
2019-03-28T04:50:10.583Z,-0.20
2019-03-28T04:52:39.156Z,0.00
2019-03-28T04:55:08.257Z,0.00
2019-03-28T04:57:36.831Z,0.00
2019-03-28T05:00:10.136Z,0.20
2019-03-28T05:02:38.907Z,0.20
2019-03-28T05:05:08.154Z,0.30
2019-03-28T05:07:36.706Z,0.50
2019-03-28T05:10:24.626Z,0.60
2019-03-28T05:12:53.214Z,0.80
2019-03-28T05:15:21.791Z,0.90
2019-03-28T05:17:50.360Z,1.00
2019-03-28T05:20:19.003Z,1.10
2019-03-28T05:22:48.475Z,1.20
2019-03-28T05:25:17.318Z,1.30
2019-03-28T05:27:45.954Z,1.30
2019-03-28T05:30:15.310Z,1.30
2019-03-28T05:32:43.878Z,1.30
2019-03-28T05:35:12.587Z,1.40
2019-03-28T05:37:41.182Z,1.50
2019-03-28T05:40:10.987Z,1.80
2019-03-28T05:42:39.734Z,2.00
2019-03-28T05:45:08.648Z,2.10
2019-03-28T05:47:37.290Z,2.20
2019-03-28T05:50:07.210Z,2.30
2019-03-28T05:52:35.769Z,2.40
2019-03-28T05:55:05.772Z,2.50
2019-03-28T05:57:34.421Z,2.60
2019-03-28T06:00:03.070Z,2.70
2019-03-28T06:02:31.739Z,3.20
2019-03-28T06:05:00.616Z,4.80
2019-03-28T06:07:29.530Z,7.00
2019-03-28T06:09:58.102Z,8.60
2019-03-28T06:12:26.670Z,9.50
2019-03-28T06:14:55.245Z,10.10
2019-03-28T06:17:23.886Z,10.80
2019-03-28T06:19:52.526Z,11.40
2019-03-28T06:22:21.114Z,11.90
2019-03-28T06:24:49.687Z,12.60
2019-03-28T06:27:18.266Z,13.80
2019-03-28T06:29:46.834Z,13.80
2019-03-28T06:32:15.418Z,13.70
2019-03-28T06:34:43.990Z,13.50
2019-03-28T06:37:12.570Z,12.90
2019-03-28T06:39:41.294Z,12.10
2019-03-28T06:42:09.878Z,11.80
2019-03-28T06:44:38.460Z,11.70
2019-03-28T06:47:07.030Z,12.20
2019-03-28T06:49:35.607Z,12.90
2019-03-28T06:52:04.311Z,14.00
2019-03-28T06:54:32.894Z,14.80
2019-03-28T06:57:01.466Z,15.80
2019-03-28T06:59:37.279Z,16.30
2019-03-28T07:02:00.330Z,17.50
2019-03-28T07:04:28.903Z,18.80
2019-03-28T07:06:57.482Z,18.10
2019-03-28T07:09:26.054Z,18.10
2019-03-28T07:11:54.643Z,18.60
2019-03-28T07:14:23.210Z,18.00
2019-03-28T07:16:51.863Z,16.80
2019-03-28T07:19:20.428Z,16.50
2019-03-28T07:21:49.010Z,16.00
2019-03-28T07:24:17.578Z,15.50
2019-03-28T07:26:46.214Z,14.30
2019-03-28T07:29:14.830Z,14.20
2019-03-28T07:31:43.398Z,15.80
2019-03-28T07:34:13.533Z,17.50
2019-03-28T07:36:42.203Z,17.60
2019-03-28T07:39:10.780Z,18.10
2019-03-28T07:41:39.347Z,18.70
2019-03-28T07:44:08.002Z,17.90
2019-03-28T07:46:36.648Z,18.20
2019-03-28T07:49:05.354Z,19.40
2019-03-28T07:51:33.966Z,20.50
2019-03-28T07:54:02.535Z,21.00
2019-03-28T07:56:31.116Z,19.80
2019-03-28T07:58:59.692Z,20.00
2019-03-28T08:01:28.269Z,22.40
2019-03-28T08:03:56.838Z,22.40
2019-03-28T08:06:25.426Z,20.40
2019-03-28T08:08:54.059Z,19.40
2019-03-28T08:11:22.795Z,19.60
2019-03-28T08:13:51.315Z,20.30
2019-03-28T08:16:19.890Z,21.30
2019-03-28T08:18:48.478Z,22.20
2019-03-28T08:21:17.049Z,23.00
2019-03-28T08:23:45.726Z,21.80
2019-03-28T08:26:14.462Z,20.10
2019-03-28T08:28:43.041Z,20.30
2019-03-28T08:31:11.766Z,20.10
2019-03-28T08:33:42.775Z,21.40
2019-03-28T08:36:11.785Z,21.00
2019-03-28T08:38:41.493Z,21.50
2019-03-28T08:41:10.155Z,20.90
2019-03-28T08:43:38.711Z,21.50
2019-03-28T08:46:08.890Z,21.00
2019-03-28T08:48:37.702Z,21.90
2019-03-28T08:51:06.352Z,21.90
2019-03-28T08:53:35.062Z,20.20
2019-03-28T08:56:03.790Z,20.20
2019-03-28T08:58:32.358Z,20.40
2019-03-28T09:01:01.009Z,19.00
2019-03-28T09:03:29.726Z,19.60
2019-03-28T09:05:58.366Z,19.30
2019-03-28T09:08:26.958Z,19.40
2019-03-28T09:10:55.626Z,19.30
2019-03-28T09:13:24.212Z,20.40
2019-03-28T09:15:52.775Z,22.00
2019-03-28T09:18:21.809Z,21.50
2019-03-28T09:20:50.294Z,21.80
2019-03-28T09:23:18.880Z,22.90
2019-03-28T09:25:47.458Z,22.60
2019-03-28T09:28:16.030Z,23.20
2019-03-28T09:30:49.310Z,21.90
2019-03-28T09:33:15.482Z,22.10
2019-03-28T09:35:44.189Z,21.10
2019-03-28T09:38:12.903Z,22.60
2019-03-28T09:40:41.630Z,23.20
2019-03-28T09:43:10.270Z,21.70
2019-03-28T09:45:38.855Z,22.50
2019-03-28T09:48:07.665Z,23.20
2019-03-28T09:50:37.248Z,22.80
2019-03-28T09:53:05.894Z,22.50
2019-03-28T09:55:34.468Z,22.20
2019-03-28T09:58:03.042Z,21.80
2019-03-28T10:00:32.991Z,21.90
2019-03-28T10:03:02.066Z,21.80
2019-03-28T10:05:30.782Z,20.90
2019-03-28T10:07:59.383Z,19.80
2019-03-28T10:10:28.030Z,19.40
2019-03-28T10:12:56.687Z,18.60
2019-03-28T10:15:25.338Z,19.80
2019-03-28T10:17:54.783Z,18.00
2019-03-28T10:20:23.705Z,18.40
2019-03-28T10:22:52.275Z,18.70
2019-03-28T10:25:21.610Z,18.90
2019-03-28T10:27:50.249Z,18.20
2019-03-28T10:30:21.894Z,19.50
2019-03-28T10:32:50.481Z,20.10
2019-03-28T10:35:26.743Z,17.90
2019-03-28T10:37:55.327Z,17.90
2019-03-28T10:40:23.900Z,17.50
2019-03-28T10:42:52.547Z,18.60
2019-03-28T10:45:21.186Z,19.50
2019-03-28T10:47:49.774Z,20.30
2019-03-28T10:50:18.358Z,19.50
2019-03-28T10:52:46.926Z,19.60
2019-03-28T10:55:16.601Z,19.80
2019-03-28T10:57:45.446Z,19.80
2019-03-28T11:00:24.108Z,19.00
2019-03-28T11:02:44.922Z,19.20
2019-03-28T11:05:14.501Z,19.60
2019-03-28T11:07:43.248Z,18.80
2019-03-28T11:10:11.998Z,18.80
2019-03-28T11:12:40.576Z,19.50
2019-03-28T11:15:10.283Z,19.40
2019-03-28T11:17:38.862Z,18.20
2019-03-28T11:20:07.770Z,16.90
2019-03-28T11:22:36.349Z,17.20
2019-03-28T11:25:06.859Z,18.20
2019-03-28T11:27:35.437Z,19.00
2019-03-28T11:30:06.622Z,19.60
2019-03-28T11:32:36.041Z,19.70
2019-03-28T11:35:07.113Z,19.70
2019-03-28T11:37:36.759Z,19.70
2019-03-28T11:40:09.838Z,19.90
2019-03-28T11:42:38.411Z,20.10
2019-03-28T11:45:09.536Z,19.50
2019-03-28T11:47:38.466Z,19.50
2019-03-28T11:50:09.085Z,19.10
2019-03-28T11:52:37.801Z,19.00
2019-03-28T11:55:08.316Z,18.50
2019-03-28T11:57:37.522Z,17.20
2019-03-28T12:00:12.236Z,17.30
2019-03-28T12:02:41.045Z,16.70
2019-03-28T12:05:09.962Z,17.10
2019-03-28T12:07:38.691Z,16.90
2019-03-28T12:10:10.087Z,17.10
2019-03-28T12:12:38.810Z,17.10
2019-03-28T12:15:08.729Z,16.90
2019-03-28T12:17:37.374Z,17.20
2019-03-28T12:20:07.817Z,17.40
2019-03-28T12:22:36.533Z,17.60
2019-03-28T12:25:09.227Z,17.50
2019-03-28T12:27:37.966Z,17.60
2019-03-28T12:30:09.042Z,17.70
2019-03-28T12:32:37.615Z,17.80
2019-03-28T12:35:08.351Z,16.50
2019-03-28T12:37:37.084Z,15.90
2019-03-28T12:40:08.407Z,16.30
2019-03-28T12:42:37.211Z,16.40
2019-03-28T12:45:09.042Z,16.90
2019-03-28T12:47:42.628Z,17.20
2019-03-28T12:50:09.877Z,17.30
2019-03-28T12:52:38.578Z,17.20
2019-03-28T12:55:07.998Z,17.40
2019-03-28T12:57:36.592Z,17.40
2019-03-28T13:00:12.319Z,16.70
2019-03-28T13:02:41.031Z,16.10
2019-03-28T13:05:11.042Z,16.30
2019-03-28T13:07:39.618Z,16.10
2019-03-28T13:10:09.432Z,16.20
2019-03-28T13:12:38.082Z,16.30
2019-03-28T13:15:07.770Z,16.50
2019-03-28T13:17:36.474Z,16.80
2019-03-28T13:20:08.139Z,17.20
2019-03-28T13:22:36.981Z,17.20
2019-03-28T13:25:07.571Z,16.60
2019-03-28T13:27:36.767Z,16.90
2019-03-28T13:30:11.246Z,17.40
2019-03-28T13:32:42.097Z,18.10
2019-03-28T13:35:10.593Z,18.10
2019-03-28T13:37:39.246Z,18.80
2019-03-28T13:40:08.477Z,18.50
2019-03-28T13:42:38.806Z,18.70
2019-03-28T13:45:09.839Z,19.20
2019-03-28T13:47:38.486Z,19.30
2019-03-28T13:50:09.458Z,19.00
2019-03-28T13:52:38.106Z,18.40
2019-03-28T13:55:07.906Z,18.70
2019-03-28T13:57:36.656Z,18.50
2019-03-28T14:00:07.937Z,18.70
2019-03-28T14:02:36.967Z,19.10
2019-03-28T14:05:06.974Z,18.30
2019-03-28T14:07:35.663Z,18.30
2019-03-28T14:10:06.586Z,18.40
2019-03-28T14:12:35.227Z,17.80
2019-03-28T14:15:04.678Z,18.10
2019-03-28T14:17:34.951Z,18.20
2019-03-28T14:20:04.830Z,17.70
2019-03-28T14:22:33.401Z,17.40
2019-03-28T14:25:02.054Z,17.40
2019-03-28T14:27:30.631Z,16.80
2019-03-28T14:29:59.221Z,16.70
2019-03-28T14:32:28.593Z,16.40
2019-03-28T14:34:57.274Z,16.70
2019-03-28T14:37:25.920Z,16.80
2019-03-28T14:39:54.558Z,17.10
2019-03-28T14:42:23.142Z,17.00
2019-03-28T14:44:51.714Z,17.10
2019-03-28T14:47:20.298Z,17.30
2019-03-28T14:49:48.930Z,17.30
2019-03-28T14:52:17.590Z,17.30
2019-03-28T14:54:46.246Z,16.80
2019-03-28T14:57:15.958Z,16.40
2019-03-28T14:59:44.750Z,16.40
2019-03-28T15:02:13.319Z,16.40
2019-03-28T15:04:41.966Z,16.40
2019-03-28T15:07:10.554Z,16.30
2019-03-28T15:09:39.141Z,15.80
2019-03-28T15:12:07.779Z,15.60
2019-03-28T15:14:36.386Z,15.80
2019-03-28T15:17:04.967Z,16.00
2019-03-28T15:19:33.530Z,16.20
2019-03-28T15:22:02.250Z,16.30
2019-03-28T15:24:31.502Z,16.20
2019-03-28T15:27:00.248Z,16.20
2019-03-28T15:29:28.767Z,16.00
2019-03-28T15:31:57.350Z,15.70
2019-03-28T15:34:25.990Z,15.70
2019-03-28T15:36:54.710Z,15.70
2019-03-28T15:39:23.294Z,15.50
2019-03-28T15:41:51.870Z,15.20
2019-03-28T15:44:20.518Z,15.00
2019-03-28T15:46:49.088Z,14.90
2019-03-28T15:49:17.738Z,14.70
2019-03-28T15:51:46.374Z,14.60
2019-03-28T15:54:15.760Z,14.60
2019-03-28T15:56:44.482Z,14.60
2019-03-28T15:59:13.062Z,14.40
2019-03-28T16:01:41.635Z,14.30
2019-03-28T16:04:10.215Z,14.40
2019-03-28T16:06:38.798Z,14.10
2019-03-28T16:09:07.706Z,14.00
2019-03-28T16:11:36.286Z,14.00
2019-03-28T16:14:04.930Z,14.00
2019-03-28T16:16:33.582Z,13.80
2019-03-28T16:19:02.214Z,13.80
2019-03-28T16:21:30.837Z,13.80
2019-03-28T16:23:59.490Z,13.70
2019-03-28T16:26:28.129Z,13.70
2019-03-28T16:28:56.802Z,13.70
2019-03-28T16:31:25.823Z,13.60
2019-03-28T16:34:06.173Z,13.50
2019-03-28T16:36:24.773Z,13.40
2019-03-28T16:38:53.359Z,13.40
2019-03-28T16:41:21.943Z,13.30
2019-03-28T16:43:50.518Z,13.20
2019-03-28T16:46:19.154Z,13.10
2019-03-28T16:48:47.866Z,13.00
2019-03-28T16:51:17.652Z,13.00
2019-03-28T16:53:46.313Z,12.80
2019-03-28T16:56:14.962Z,12.80
2019-03-28T16:58:43.530Z,12.70
2019-03-28T17:01:12.182Z,12.60
2019-03-28T17:03:40.898Z,12.60
2019-03-28T17:06:10.028Z,12.60
2019-03-28T17:08:39.967Z,12.60
2019-03-28T17:11:08.554Z,12.50
2019-03-28T17:13:37.135Z,12.40
2019-03-28T17:16:05.833Z,12.30
2019-03-28T17:18:34.414Z,12.20
2019-03-28T17:21:03.123Z,12.20
2019-03-28T17:23:31.870Z,12.10
2019-03-28T17:26:00.438Z,12.10
2019-03-28T17:28:29.018Z,12.00
2019-03-28T17:30:57.593Z,11.90
2019-03-28T17:33:26.166Z,11.80
2019-03-28T17:35:55.474Z,11.60
2019-03-28T17:38:24.262Z,11.50
2019-03-28T17:40:52.906Z,11.50
2019-03-28T17:43:21.594Z,11.40
2019-03-28T17:45:50.215Z,11.30
2019-03-28T17:48:18.854Z,11.30
2019-03-28T17:50:47.444Z,11.20
2019-03-28T17:53:16.013Z,11.20
2019-03-28T17:55:44.650Z,11.10
2019-03-28T17:58:13.228Z,11.10
2019-03-28T18:00:43.438Z,11.00
2019-03-28T18:03:12.162Z,11.00
2019-03-28T18:05:41.086Z,10.90
2019-03-28T18:08:10.226Z,10.90
2019-03-28T18:10:38.795Z,10.90
2019-03-28T18:13:07.378Z,10.90
2019-03-28T18:15:35.948Z,10.90
2019-03-28T18:18:04.730Z,10.80
2019-03-28T18:20:33.299Z,10.70
2019-03-28T18:23:01.951Z,10.70
2019-03-28T18:25:30.589Z,10.60
2019-03-28T18:27:59.160Z,10.50
2019-03-28T18:30:27.980Z,10.40
2019-03-28T18:32:56.554Z,10.30
2019-03-28T18:35:25.132Z,10.40
2019-03-28T18:37:53.700Z,10.30
2019-03-28T18:40:22.458Z,10.30
2019-03-28T18:42:51.026Z,10.30
2019-03-28T18:45:19.839Z,10.20
2019-03-28T18:47:48.486Z,10.10
2019-03-28T18:50:17.222Z,10.10
2019-03-28T18:52:45.808Z,10.10
2019-03-28T18:55:15.011Z,10.10
2019-03-28T18:57:43.663Z,10.00
2019-03-28T19:00:12.643Z,9.90
2019-03-28T19:02:41.226Z,10.00
2019-03-28T19:05:19.780Z,10.00
2019-03-28T19:07:40.627Z,9.90
2019-03-28T19:10:11.234Z,9.80
2019-03-28T19:12:40.374Z,9.80
2019-03-28T19:15:09.389Z,9.70
2019-03-28T19:17:38.124Z,9.70
2019-03-28T19:20:07.939Z,9.80
2019-03-28T19:22:37.042Z,9.80
2019-03-28T19:25:08.769Z,9.80
2019-03-28T19:27:38.163Z,9.70
2019-03-28T19:30:08.175Z,9.70
2019-03-28T19:32:36.922Z,9.80
2019-03-28T19:35:08.134Z,9.80
2019-03-28T19:37:38.159Z,9.70
2019-03-28T19:40:09.817Z,9.70
2019-03-28T19:42:39.126Z,9.70
2019-03-28T19:45:08.027Z,9.60
2019-03-28T19:47:36.742Z,9.60
2019-03-28T19:50:07.518Z,9.50
2019-03-28T19:52:36.402Z,9.60
2019-03-28T19:55:06.504Z,9.60
2019-03-28T19:57:35.170Z,9.60
2019-03-28T20:00:06.270Z,9.70
2019-03-28T20:02:34.978Z,9.60
2019-03-28T20:05:04.313Z,9.60
2019-03-28T20:07:32.878Z,9.50
2019-03-28T20:10:10.857Z,9.60
2019-03-28T20:12:31.782Z,9.50
2019-03-28T20:15:00.717Z,9.50
2019-03-28T20:17:29.306Z,9.50
2019-03-28T20:19:57.874Z,9.50
2019-03-28T20:22:26.500Z,9.40
2019-03-28T20:24:58.133Z,9.40
2019-03-28T20:27:25.426Z,9.30
2019-03-28T20:29:54.062Z,9.50
2019-03-28T20:32:22.706Z,9.40
2019-03-28T20:34:51.411Z,9.50
2019-03-28T20:37:20.589Z,9.50
2019-03-28T20:39:49.235Z,9.50
2019-03-28T20:42:17.800Z,9.50
2019-03-28T20:44:46.378Z,9.40
2019-03-28T20:47:15.014Z,9.40
2019-03-28T20:49:46.559Z,9.40
2019-03-28T20:52:13.930Z,9.40
2019-03-28T20:54:42.510Z,9.50
2019-03-28T20:57:11.074Z,9.50
2019-03-28T20:59:39.825Z,9.40
2019-03-28T21:02:08.394Z,9.30
2019-03-28T21:04:37.899Z,9.30
2019-03-28T21:07:06.847Z,9.30
2019-03-28T21:09:35.585Z,9.30
2019-03-28T21:12:04.226Z,9.20
2019-03-28T21:14:32.791Z,9.20
2019-03-28T21:17:01.366Z,9.10
2019-03-28T21:19:29.946Z,9.20
2019-03-28T21:21:59.211Z,9.20
2019-03-28T21:24:27.774Z,9.30
2019-03-28T21:26:56.338Z,9.20
2019-03-28T21:29:24.942Z,9.10
2019-03-28T21:31:53.514Z,9.00
2019-03-28T21:34:22.098Z,9.00
2019-03-28T21:36:50.668Z,9.00
2019-03-28T21:39:19.482Z,9.00
2019-03-28T21:41:48.580Z,9.10
2019-03-28T21:44:17.174Z,9.10
2019-03-28T21:46:45.829Z,9.10
2019-03-28T21:49:14.386Z,9.00
2019-03-28T21:51:45.785Z,8.90
2019-03-28T21:54:13.540Z,8.90
2019-03-28T21:56:42.282Z,8.90
2019-03-28T21:59:12.645Z,8.90
2019-03-28T22:01:41.286Z,8.90
2019-03-28T22:04:10.079Z,8.80
2019-03-28T22:06:43.164Z,8.90
2019-03-28T22:09:09.066Z,8.80
2019-03-28T22:11:37.634Z,8.80
2019-03-28T22:14:06.289Z,8.80
2019-03-28T22:16:36.112Z,8.70
2019-03-28T22:19:05.360Z,8.80
2019-03-28T22:21:34.074Z,8.80
2019-03-28T22:24:02.726Z,8.70
2019-03-28T22:26:31.379Z,8.80
2019-03-28T22:29:00.036Z,8.70
2019-03-28T22:31:28.674Z,8.60
2019-03-28T22:33:57.247Z,8.60
2019-03-28T22:36:26.006Z,8.60
2019-03-28T22:38:54.594Z,8.60
2019-03-28T22:41:23.218Z,8.70
2019-03-28T22:43:51.790Z,8.60
2019-03-28T22:46:20.502Z,8.60
2019-03-28T22:48:49.075Z,8.60
2019-03-28T22:51:17.658Z,8.70
2019-03-28T22:53:46.304Z,8.60
2019-03-28T22:56:14.942Z,8.60
2019-03-28T22:58:43.639Z,8.60
2019-03-28T23:01:12.798Z,8.60
2019-03-28T23:03:41.441Z,8.60
2019-03-28T23:06:10.203Z,8.60
2019-03-28T23:08:38.766Z,8.60
2019-03-28T23:11:09.232Z,8.50
2019-03-28T23:13:37.838Z,8.50
2019-03-28T23:16:06.472Z,8.50
2019-03-28T23:18:35.185Z,8.60
2019-03-28T23:21:03.767Z,8.60
2019-03-28T23:23:32.331Z,8.50
2019-03-28T23:26:02.060Z,8.40
2019-03-28T23:28:30.618Z,8.50
2019-03-28T23:30:59.194Z,8.50
2019-03-28T23:33:27.758Z,8.50
2019-03-28T23:35:56.874Z,8.60
2019-03-28T23:38:25.531Z,8.50
2019-03-28T23:40:54.222Z,8.50
2019-03-28T23:43:22.865Z,8.50
2019-03-28T23:45:51.430Z,8.50
2019-03-28T23:48:20.015Z,8.50
2019-03-28T23:50:48.581Z,8.50
2019-03-28T23:53:17.150Z,8.60
2019-03-28T23:55:45.720Z,8.60
2019-03-28T23:58:14.306Z,8.70
